Archival Weather

South Haven Area Rgnl

South Haven, Michigan (KLWA)

Report from: Thursday, September 21, 2023 5:55 PM EDT
Current time: Saturday, February 24, 2024 11:53 AM EST

Current weather – Weather history – Daily summaries
Weather forecast

Temperature24.5°C (76.1°F)
Dew point17.5°C (63.5°F)
Winds Calm
Visibility10 mi. (16.1 km)
Clouds Sky clear
Altimeter30.20 in.Hg (1023 mB)
Relative humidity65 %
Density altitude1,058 ft. (323 m)
Remarks Fully automated report
Automated weather observing station with precipitation discriminator
Flight conditions Visual Meteorological Conditions
Raw dataKLWA 212155Z AUTO 00000KT 10SM CLR 25/18 A3020 RMK AO2 T02450175
An error has occurred. This application may no longer respond until reloaded. Reload 🗙